sensor_id;sensor_type;location;lat;lon;timestamp;P1;durP1;ratioP1;P2;durP2;ratioP2
47796;SDS011;33558;50.922;14.068;2023-04-25T00:02:25;4.47;;;2.27;;
47796;SDS011;33558;50.922;14.068;2023-04-25T00:04:53;4.97;;;2.27;;
47796;SDS011;33558;50.922;14.068;2023-04-25T00:07:24;3.40;;;2.17;;
47796;SDS011;33558;50.922;14.068;2023-04-25T00:09:51;3.70;;;1.97;;
47796;SDS011;33558;50.922;14.068;2023-04-25T00:12:18;4.90;;;2.30;;
47796;SDS011;33558;50.922;14.068;2023-04-25T00:14:46;2.87;;;1.93;;
47796;SDS011;33558;50.922;14.068;2023-04-25T00:17:14;4.63;;;2.00;;
47796;SDS011;33558;50.922;14.068;2023-04-25T00:19:41;3.00;;;2.10;;
47796;SDS011;33558;50.922;14.068;2023-04-25T00:22:09;4.73;;;2.10;;
47796;SDS011;33558;50.922;14.068;2023-04-25T00:24:37;5.83;;;1.90;;
47796;SDS011;33558;50.922;14.068;2023-04-25T00:27:06;5.27;;;1.90;;
47796;SDS011;33558;50.922;14.068;2023-04-25T00:29:33;5.97;;;2.37;;
47796;SDS011;33558;50.922;14.068;2023-04-25T00:32:01;4.10;;;2.43;;
47796;SDS011;33558;50.922;14.068;2023-04-25T00:34:27;3.37;;;2.13;;
47796;SDS011;33558;50.922;14.068;2023-04-25T00:36:54;4.50;;;2.30;;
47796;SDS011;33558;50.922;14.068;2023-04-25T00:39:22;3.53;;;2.37;;
47796;SDS011;33558;50.922;14.068;2023-04-25T00:41:48;10.63;;;3.57;;
47796;SDS011;33558;50.922;14.068;2023-04-25T00:44:18;4.47;;;2.60;;
47796;SDS011;33558;50.922;14.068;2023-04-25T00:46:45;4.43;;;2.67;;
47796;SDS011;33558;50.922;14.068;2023-04-25T00:49:14;3.77;;;2.20;;
47796;SDS011;33558;50.922;14.068;2023-04-25T00:51:42;2.83;;;2.23;;
47796;SDS011;33558;50.922;14.068;2023-04-25T00:54:09;3.80;;;2.20;;
47796;SDS011;33558;50.922;14.068;2023-04-25T00:56:36;3.57;;;2.00;;
47796;SDS011;33558;50.922;14.068;2023-04-25T00:59:02;3.60;;;2.00;;
47796;SDS011;33558;50.922;14.068;2023-04-25T01:01:29;3.83;;;2.47;;
47796;SDS011;33558;50.922;14.068;2023-04-25T01:03:56;4.20;;;2.13;;
47796;SDS011;33558;50.922;14.068;2023-04-25T01:06:26;3.53;;;2.00;;
47796;SDS011;33558;50.922;14.068;2023-04-25T01:08:53;3.60;;;2.07;;
47796;SDS011;33558;50.922;14.068;2023-04-25T01:11:20;3.10;;;2.03;;
47796;SDS011;33558;50.922;14.068;2023-04-25T01:13:46;5.43;;;2.90;;
47796;SDS011;33558;50.922;14.068;2023-04-25T01:16:13;3.53;;;2.07;;
47796;SDS011;33558;50.922;14.068;2023-04-25T01:18:40;5.63;;;2.20;;
47796;SDS011;33558;50.922;14.068;2023-04-25T01:21:09;3.97;;;2.10;;
47796;SDS011;33558;50.922;14.068;2023-04-25T01:23:37;5.33;;;2.40;;
47796;SDS011;33558;50.922;14.068;2023-04-25T01:26:05;4.30;;;2.83;;
47796;SDS011;33558;50.922;14.068;2023-04-25T01:28:32;2.97;;;2.13;;
47796;SDS011;33558;50.922;14.068;2023-04-25T01:31:00;3.13;;;2.20;;
47796;SDS011;33558;50.922;14.068;2023-04-25T01:33:27;5.20;;;2.37;;
47796;SDS011;33558;50.922;14.068;2023-04-25T01:35:56;5.03;;;2.63;;
47796;SDS011;33558;50.922;14.068;2023-04-25T01:38:24;4.07;;;2.40;;
47796;SDS011;33558;50.922;14.068;2023-04-25T01:40:51;4.27;;;2.60;;
47796;SDS011;33558;50.922;14.068;2023-04-25T01:43:18;4.07;;;2.43;;
47796;SDS011;33558;50.922;14.068;2023-04-25T01:45:45;3.77;;;2.43;;
47796;SDS011;33558;50.922;14.068;2023-04-25T01:48:12;4.93;;;2.70;;
47796;SDS011;33558;50.922;14.068;2023-04-25T01:50:42;6.07;;;2.67;;
47796;SDS011;33558;50.922;14.068;2023-04-25T01:53:11;7.20;;;3.27;;
47796;SDS011;33558;50.922;14.068;2023-04-25T01:55:41;3.07;;;2.30;;
47796;SDS011;33558;50.922;14.068;2023-04-25T01:58:12;4.57;;;2.87;;
47796;SDS011;33558;50.922;14.068;2023-04-25T02:00:59;4.43;;;2.90;;
47796;SDS011;33558;50.922;14.068;2023-04-25T02:03:31;3.90;;;2.80;;
47796;SDS011;33558;50.922;14.068;2023-04-25T02:05:59;4.37;;;3.40;;
47796;SDS011;33558;50.922;14.068;2023-04-25T02:08:27;5.57;;;4.27;;
47796;SDS011;33558;50.922;14.068;2023-04-25T02:10:56;6.60;;;3.90;;
47796;SDS011;33558;50.922;14.068;2023-04-25T02:13:29;6.87;;;4.10;;
47796;SDS011;33558;50.922;14.068;2023-04-25T02:15:59;9.17;;;4.27;;
47796;SDS011;33558;50.922;14.068;2023-04-25T02:18:25;8.00;;;4.67;;
47796;SDS011;33558;50.922;14.068;2023-04-25T02:20:52;9.33;;;6.27;;
47796;SDS011;33558;50.922;14.068;2023-04-25T02:23:19;9.20;;;5.80;;
47796;SDS011;33558;50.922;14.068;2023-04-25T02:25:46;9.33;;;6.40;;
47796;SDS011;33558;50.922;14.068;2023-04-25T02:28:14;7.80;;;5.30;;
47796;SDS011;33558;50.922;14.068;2023-04-25T02:30:41;8.80;;;5.60;;
47796;SDS011;33558;50.922;14.068;2023-04-25T02:33:07;8.57;;;5.27;;
47796;SDS011;33558;50.922;14.068;2023-04-25T02:35:35;7.53;;;4.97;;
47796;SDS011;33558;50.922;14.068;2023-04-25T02:38:01;10.87;;;6.23;;
47796;SDS011;33558;50.922;14.068;2023-04-25T02:40:28;7.37;;;5.13;;
47796;SDS011;33558;50.922;14.068;2023-04-25T02:42:55;7.77;;;5.20;;
47796;SDS011;33558;50.922;14.068;2023-04-25T02:45:26;9.83;;;5.17;;
47796;SDS011;33558;50.922;14.068;2023-04-25T02:47:54;9.07;;;5.47;;
47796;SDS011;33558;50.922;14.068;2023-04-25T02:50:21;8.97;;;4.83;;
47796;SDS011;33558;50.922;14.068;2023-04-25T02:52:47;7.97;;;4.80;;
47796;SDS011;33558;50.922;14.068;2023-04-25T02:55:19;9.23;;;5.00;;
47796;SDS011;33558;50.922;14.068;2023-04-25T02:57:46;8.60;;;5.97;;
47796;SDS011;33558;50.922;14.068;2023-04-25T03:00:22;10.32;;;5.05;;
47796;SDS011;33558;50.922;14.068;2023-04-25T03:02:50;8.33;;;5.57;;
47796;SDS011;33558;50.922;14.068;2023-04-25T03:05:17;7.63;;;4.90;;
47796;SDS011;33558;50.922;14.068;2023-04-25T03:07:44;8.77;;;5.27;;
47796;SDS011;33558;50.922;14.068;2023-04-25T03:10:11;10.13;;;5.57;;
47796;SDS011;33558;50.922;14.068;2023-04-25T03:12:40;8.00;;;5.60;;
47796;SDS011;33558;50.922;14.068;2023-04-25T03:15:06;7.03;;;4.60;;
47796;SDS011;33558;50.922;14.068;2023-04-25T03:17:34;8.67;;;4.90;;
47796;SDS011;33558;50.922;14.068;2023-04-25T03:20:03;8.70;;;5.07;;
47796;SDS011;33558;50.922;14.068;2023-04-25T03:22:32;8.10;;;5.40;;
47796;SDS011;33558;50.922;14.068;2023-04-25T03:24:58;7.43;;;4.90;;
47796;SDS011;33558;50.922;14.068;2023-04-25T03:27:25;7.27;;;5.47;;
47796;SDS011;33558;50.922;14.068;2023-04-25T03:29:52;7.03;;;4.87;;
47796;SDS011;33558;50.922;14.068;2023-04-25T03:32:19;8.63;;;5.17;;
47796;SDS011;33558;50.922;14.068;2023-04-25T03:34:45;7.17;;;5.00;;
47796;SDS011;33558;50.922;14.068;2023-04-25T03:37:14;9.37;;;4.80;;
47796;SDS011;33558;50.922;14.068;2023-04-25T03:39:40;7.67;;;4.77;;
47796;SDS011;33558;50.922;14.068;2023-04-25T03:42:07;8.03;;;5.93;;
47796;SDS011;33558;50.922;14.068;2023-04-25T03:44:34;10.73;;;6.43;;
47796;SDS011;33558;50.922;14.068;2023-04-25T03:47:01;10.77;;;6.50;;
47796;SDS011;33558;50.922;14.068;2023-04-25T03:49:28;9.33;;;5.40;;
47796;SDS011;33558;50.922;14.068;2023-04-25T03:51:58;10.07;;;5.57;;
47796;SDS011;33558;50.922;14.068;2023-04-25T03:54:28;8.37;;;5.37;;
47796;SDS011;33558;50.922;14.068;2023-04-25T03:57:01;7.83;;;4.73;;
47796;SDS011;33558;50.922;14.068;2023-04-25T03:59:31;9.40;;;5.83;;
47796;SDS011;33558;50.922;14.068;2023-04-25T04:01:58;10.33;;;5.53;;
47796;SDS011;33558;50.922;14.068;2023-04-25T04:04:26;8.47;;;5.70;;
47796;SDS011;33558;50.922;14.068;2023-04-25T04:06:53;7.43;;;4.83;;
47796;SDS011;33558;50.922;14.068;2023-04-25T04:09:26;9.30;;;5.37;;
47796;SDS011;33558;50.922;14.068;2023-04-25T04:11:55;12.13;;;6.23;;
47796;SDS011;33558;50.922;14.068;2023-04-25T04:14:22;7.17;;;4.83;;
47796;SDS011;33558;50.922;14.068;2023-04-25T04:16:50;6.63;;;5.03;;
47796;SDS011;33558;50.922;14.068;2023-04-25T04:19:17;9.53;;;5.30;;
47796;SDS011;33558;50.922;14.068;2023-04-25T04:21:50;9.50;;;5.07;;
47796;SDS011;33558;50.922;14.068;2023-04-25T04:24:17;10.13;;;5.10;;
47796;SDS011;33558;50.922;14.068;2023-04-25T04:26:51;10.23;;;4.70;;
47796;SDS011;33558;50.922;14.068;2023-04-25T04:29:37;6.70;;;4.33;;
47796;SDS011;33558;50.922;14.068;2023-04-25T04:32:10;6.30;;;4.40;;
47796;SDS011;33558;50.922;14.068;2023-04-25T04:34:37;7.23;;;4.80;;
47796;SDS011;33558;50.922;14.068;2023-04-25T04:37:05;6.93;;;4.23;;
47796;SDS011;33558;50.922;14.068;2023-04-25T04:39:32;7.33;;;4.33;;
47796;SDS011;33558;50.922;14.068;2023-04-25T04:42:13;7.07;;;4.20;;
47796;SDS011;33558;50.922;14.068;2023-04-25T04:44:55;5.17;;;3.80;;
47796;SDS011;33558;50.922;14.068;2023-04-25T04:47:36;6.17;;;4.80;;
47796;SDS011;33558;50.922;14.068;2023-04-25T04:50:15;8.47;;;4.40;;
47796;SDS011;33558;50.922;14.068;2023-04-25T04:53:03;8.37;;;4.37;;
47796;SDS011;33558;50.922;14.068;2023-04-25T04:55:39;7.07;;;4.13;;
47796;SDS011;33558;50.922;14.068;2023-04-25T04:58:31;7.97;;;4.30;;
47796;SDS011;33558;50.922;14.068;2023-04-25T05:01:18;6.93;;;4.40;;
47796;SDS011;33558;50.922;14.068;2023-04-25T05:04:04;6.80;;;4.50;;
47796;SDS011;33558;50.922;14.068;2023-04-25T05:06:46;7.27;;;4.33;;
47796;SDS011;33558;50.922;14.068;2023-04-25T05:09:42;7.72;;;5.10;;
47796;SDS011;33558;50.922;14.068;2023-04-25T05:12:41;5.47;;;4.43;;
47796;SDS011;33558;50.922;14.068;2023-04-25T05:15:32;7.20;;;4.47;;
47796;SDS011;33558;50.922;14.068;2023-04-25T05:18:16;6.43;;;3.90;;
47796;SDS011;33558;50.922;14.068;2023-04-25T05:20:56;7.00;;;3.80;;
47796;SDS011;33558;50.922;14.068;2023-04-25T05:23:37;5.80;;;3.57;;
47796;SDS011;33558;50.922;14.068;2023-04-25T05:26:22;8.63;;;4.97;;
47796;SDS011;33558;50.922;14.068;2023-04-25T05:28:59;4.50;;;3.43;;
47796;SDS011;33558;50.922;14.068;2023-04-25T05:32:00;7.83;;;4.43;;
47796;SDS011;33558;50.922;14.068;2023-04-25T05:34:28;6.10;;;4.63;;
47796;SDS011;33558;50.922;14.068;2023-04-25T05:36:58;8.37;;;4.33;;
47796;SDS011;33558;50.922;14.068;2023-04-25T05:39:25;5.87;;;4.23;;
47796;SDS011;33558;50.922;14.068;2023-04-25T05:42:07;5.63;;;4.10;;
47796;SDS011;33558;50.922;14.068;2023-04-25T05:45:04;8.07;;;5.03;;
47796;SDS011;33558;50.922;14.068;2023-04-25T05:47:58;10.17;;;5.13;;
47796;SDS011;33558;50.922;14.068;2023-04-25T05:50:42;7.55;;;4.70;;
47796;SDS011;33558;50.922;14.068;2023-04-25T05:53:22;9.00;;;5.00;;
47796;SDS011;33558;50.922;14.068;2023-04-25T05:55:55;7.50;;;4.43;;
47796;SDS011;33558;50.922;14.068;2023-04-25T05:58:24;7.27;;;4.50;;
47796;SDS011;33558;50.922;14.068;2023-04-25T06:00:52;8.07;;;4.60;;
47796;SDS011;33558;50.922;14.068;2023-04-25T06:03:20;7.73;;;4.60;;
47796;SDS011;33558;50.922;14.068;2023-04-25T06:05:48;8.17;;;5.03;;
47796;SDS011;33558;50.922;14.068;2023-04-25T06:08:15;6.80;;;4.70;;
47796;SDS011;33558;50.922;14.068;2023-04-25T06:10:42;11.27;;;4.63;;
47796;SDS011;33558;50.922;14.068;2023-04-25T06:13:09;5.43;;;4.23;;
47796;SDS011;33558;50.922;14.068;2023-04-25T06:15:36;9.30;;;4.37;;
47796;SDS011;33558;50.922;14.068;2023-04-25T06:18:05;7.50;;;4.90;;
47796;SDS011;33558;50.922;14.068;2023-04-25T06:20:34;8.87;;;4.20;;
47796;SDS011;33558;50.922;14.068;2023-04-25T06:23:01;7.40;;;4.13;;
47796;SDS011;33558;50.922;14.068;2023-04-25T06:25:40;7.37;;;4.20;;
47796;SDS011;33558;50.922;14.068;2023-04-25T06:28:06;8.53;;;4.70;;
47796;SDS011;33558;50.922;14.068;2023-04-25T06:30:36;6.00;;;3.93;;
47796;SDS011;33558;50.922;14.068;2023-04-25T06:33:08;7.30;;;3.67;;
47796;SDS011;33558;50.922;14.068;2023-04-25T06:35:37;5.90;;;3.80;;
47796;SDS011;33558;50.922;14.068;2023-04-25T06:38:06;7.17;;;4.40;;
47796;SDS011;33558;50.922;14.068;2023-04-25T06:40:37;6.43;;;4.13;;
47796;SDS011;33558;50.922;14.068;2023-04-25T06:43:05;6.83;;;4.60;;
47796;SDS011;33558;50.922;14.068;2023-04-25T06:45:50;7.40;;;4.50;;
47796;SDS011;33558;50.922;14.068;2023-04-25T06:48:19;6.33;;;4.60;;
47796;SDS011;33558;50.922;14.068;2023-04-25T06:50:47;9.40;;;4.20;;
47796;SDS011;33558;50.922;14.068;2023-04-25T06:53:14;7.03;;;4.30;;
47796;SDS011;33558;50.922;14.068;2023-04-25T06:55:44;7.37;;;4.20;;
47796;SDS011;33558;50.922;14.068;2023-04-25T06:58:21;6.90;;;4.43;;
47796;SDS011;33558;50.922;14.068;2023-04-25T07:00:58;8.23;;;4.40;;
47796;SDS011;33558;50.922;14.068;2023-04-25T07:03:25;9.90;;;4.40;;
47796;SDS011;33558;50.922;14.068;2023-04-25T07:05:58;9.83;;;5.33;;
47796;SDS011;33558;50.922;14.068;2023-04-25T07:08:25;8.50;;;4.13;;
47796;SDS011;33558;50.922;14.068;2023-04-25T07:10:52;7.30;;;4.00;;
47796;SDS011;33558;50.922;14.068;2023-04-25T07:13:19;8.47;;;4.23;;
47796;SDS011;33558;50.922;14.068;2023-04-25T07:15:46;6.10;;;4.17;;
47796;SDS011;33558;50.922;14.068;2023-04-25T07:18:15;6.70;;;3.73;;
47796;SDS011;33558;50.922;14.068;2023-04-25T07:20:42;7.73;;;3.33;;
47796;SDS011;33558;50.922;14.068;2023-04-25T07:23:10;6.00;;;3.70;;
47796;SDS011;33558;50.922;14.068;2023-04-25T07:25:38;8.27;;;4.13;;
47796;SDS011;33558;50.922;14.068;2023-04-25T07:28:06;7.37;;;3.70;;
47796;SDS011;33558;50.922;14.068;2023-04-25T07:30:32;6.60;;;4.23;;
47796;SDS011;33558;50.922;14.068;2023-04-25T07:33:02;7.63;;;4.00;;
47796;SDS011;33558;50.922;14.068;2023-04-25T07:35:29;8.73;;;4.57;;
47796;SDS011;33558;50.922;14.068;2023-04-25T07:37:56;8.33;;;4.30;;
47796;SDS011;33558;50.922;14.068;2023-04-25T07:40:25;8.97;;;4.57;;
47796;SDS011;33558;50.922;14.068;2023-04-25T07:42:57;6.40;;;3.87;;
47796;SDS011;33558;50.922;14.068;2023-04-25T07:45:33;7.33;;;4.67;;
47796;SDS011;33558;50.922;14.068;2023-04-25T07:48:01;7.50;;;4.77;;
47796;SDS011;33558;50.922;14.068;2023-04-25T07:50:31;8.43;;;4.73;;
47796;SDS011;33558;50.922;14.068;2023-04-25T07:52:58;6.43;;;4.60;;
47796;SDS011;33558;50.922;14.068;2023-04-25T07:55:32;9.23;;;4.53;;
47796;SDS011;33558;50.922;14.068;2023-04-25T07:58:05;7.13;;;4.67;;
47796;SDS011;33558;50.922;14.068;2023-04-25T08:00:32;9.20;;;5.20;;
47796;SDS011;33558;50.922;14.068;2023-04-25T08:03:18;9.53;;;5.00;;
47796;SDS011;33558;50.922;14.068;2023-04-25T08:05:45;9.37;;;4.67;;
47796;SDS011;33558;50.922;14.068;2023-04-25T08:08:12;6.40;;;4.13;;
47796;SDS011;33558;50.922;14.068;2023-04-25T08:10:41;7.73;;;4.87;;
47796;SDS011;33558;50.922;14.068;2023-04-25T08:13:08;9.10;;;4.80;;
47796;SDS011;33558;50.922;14.068;2023-04-25T08:15:36;6.37;;;4.10;;
47796;SDS011;33558;50.922;14.068;2023-04-25T08:18:02;9.27;;;4.63;;
47796;SDS011;33558;50.922;14.068;2023-04-25T08:20:30;7.93;;;4.40;;
47796;SDS011;33558;50.922;14.068;2023-04-25T08:22:59;5.90;;;4.37;;
47796;SDS011;33558;50.922;14.068;2023-04-25T08:25:37;6.20;;;4.00;;
47796;SDS011;33558;50.922;14.068;2023-04-25T08:28:06;7.63;;;4.00;;
47796;SDS011;33558;50.922;14.068;2023-04-25T08:30:32;8.20;;;3.97;;
47796;SDS011;33558;50.922;14.068;2023-04-25T08:32:59;7.03;;;3.57;;
47796;SDS011;33558;50.922;14.068;2023-04-25T08:35:45;7.47;;;3.63;;
47796;SDS011;33558;50.922;14.068;2023-04-25T08:38:12;5.57;;;3.57;;
47796;SDS011;33558;50.922;14.068;2023-04-25T08:40:39;5.00;;;3.63;;
47796;SDS011;33558;50.922;14.068;2023-04-25T08:43:13;6.27;;;3.77;;
47796;SDS011;33558;50.922;14.068;2023-04-25T08:45:41;3.73;;;3.10;;
47796;SDS011;33558;50.922;14.068;2023-04-25T08:48:13;8.10;;;2.70;;
47796;SDS011;33558;50.922;14.068;2023-04-25T08:50:43;5.43;;;2.73;;
47796;SDS011;33558;50.922;14.068;2023-04-25T08:53:12;4.93;;;2.90;;
47796;SDS011;33558;50.922;14.068;2023-04-25T08:55:42;4.57;;;3.40;;
47796;SDS011;33558;50.922;14.068;2023-04-25T08:58:09;5.10;;;2.83;;
47796;SDS011;33558;50.922;14.068;2023-04-25T09:00:38;5.27;;;3.20;;
47796;SDS011;33558;50.922;14.068;2023-04-25T09:03:05;6.20;;;2.87;;
47796;SDS011;33558;50.922;14.068;2023-04-25T09:05:32;5.37;;;3.17;;
47796;SDS011;33558;50.922;14.068;2023-04-25T09:08:00;5.47;;;2.73;;
47796;SDS011;33558;50.922;14.068;2023-04-25T09:10:27;5.43;;;3.10;;
47796;SDS011;33558;50.922;14.068;2023-04-25T09:13:03;3.07;;;1.90;;
47796;SDS011;33558;50.922;14.068;2023-04-25T09:15:46;5.70;;;2.70;;
47796;SDS011;33558;50.922;14.068;2023-04-25T09:18:34;5.57;;;2.93;;
47796;SDS011;33558;50.922;14.068;2023-04-25T09:21:04;4.80;;;2.83;;
47796;SDS011;33558;50.922;14.068;2023-04-25T09:23:38;6.77;;;2.47;;
47796;SDS011;33558;50.922;14.068;2023-04-25T09:26:06;5.30;;;2.13;;
47796;SDS011;33558;50.922;14.068;2023-04-25T09:28:33;8.33;;;4.50;;
47796;SDS011;33558;50.922;14.068;2023-04-25T09:31:02;6.10;;;3.20;;
47796;SDS011;33558;50.922;14.068;2023-04-25T09:33:40;5.77;;;3.13;;
47796;SDS011;33558;50.922;14.068;2023-04-25T09:36:07;4.40;;;2.67;;
47796;SDS011;33558;50.922;14.068;2023-04-25T09:38:55;6.63;;;2.90;;
47796;SDS011;33558;50.922;14.068;2023-04-25T09:41:28;5.70;;;3.10;;
47796;SDS011;33558;50.922;14.068;2023-04-25T09:43:58;5.57;;;2.70;;
47796;SDS011;33558;50.922;14.068;2023-04-25T09:46:34;5.27;;;3.03;;
47796;SDS011;33558;50.922;14.068;2023-04-25T09:49:06;5.53;;;3.03;;
47796;SDS011;33558;50.922;14.068;2023-04-25T09:51:40;4.00;;;2.80;;
47796;SDS011;33558;50.922;14.068;2023-04-25T09:54:08;5.07;;;3.33;;
47796;SDS011;33558;50.922;14.068;2023-04-25T09:56:46;6.77;;;3.20;;
47796;SDS011;33558;50.922;14.068;2023-04-25T09:59:14;8.97;;;3.20;;
47796;SDS011;33558;50.922;14.068;2023-04-25T10:01:43;8.30;;;3.73;;
47796;SDS011;33558;50.922;14.068;2023-04-25T10:04:22;7.53;;;3.30;;
47796;SDS011;33558;50.922;14.068;2023-04-25T10:07:00;5.20;;;3.37;;
47796;SDS011;33558;50.922;14.068;2023-04-25T10:09:28;6.40;;;3.60;;
47796;SDS011;33558;50.922;14.068;2023-04-25T10:11:57;7.07;;;3.53;;
47796;SDS011;33558;50.922;14.068;2023-04-25T10:14:25;8.10;;;4.53;;
47796;SDS011;33558;50.922;14.068;2023-04-25T10:16:53;7.57;;;4.40;;
47796;SDS011;33558;50.922;14.068;2023-04-25T10:19:20;5.30;;;4.27;;
47796;SDS011;33558;50.922;14.068;2023-04-25T10:21:49;10.80;;;4.70;;
47796;SDS011;33558;50.922;14.068;2023-04-25T10:24:18;5.47;;;4.30;;
47796;SDS011;33558;50.922;14.068;2023-04-25T10:26:46;5.67;;;4.00;;
47796;SDS011;33558;50.922;14.068;2023-04-25T10:29:15;6.77;;;4.33;;
47796;SDS011;33558;50.922;14.068;2023-04-25T10:31:48;6.40;;;4.33;;
47796;SDS011;33558;50.922;14.068;2023-04-25T10:34:16;8.20;;;4.90;;
47796;SDS011;33558;50.922;14.068;2023-04-25T10:36:44;10.93;;;5.00;;
47796;SDS011;33558;50.922;14.068;2023-04-25T10:39:19;5.70;;;3.90;;
47796;SDS011;33558;50.922;14.068;2023-04-25T10:41:52;4.97;;;3.80;;
47796;SDS011;33558;50.922;14.068;2023-04-25T10:44:19;5.87;;;3.70;;
47796;SDS011;33558;50.922;14.068;2023-04-25T10:46:46;6.17;;;3.70;;
47796;SDS011;33558;50.922;14.068;2023-04-25T10:52:13;4.47;;;3.83;;
47796;SDS011;33558;50.922;14.068;2023-04-25T10:54:47;6.43;;;4.33;;
47796;SDS011;33558;50.922;14.068;2023-04-25T10:57:31;6.97;;;3.80;;
47796;SDS011;33558;50.922;14.068;2023-04-25T11:00:01;5.60;;;3.93;;
47796;SDS011;33558;50.922;14.068;2023-04-25T11:02:32;12.53;;;5.13;;
47796;SDS011;33558;50.922;14.068;2023-04-25T11:05:00;7.13;;;4.57;;
47796;SDS011;33558;50.922;14.068;2023-04-25T11:07:29;7.77;;;4.97;;
47796;SDS011;33558;50.922;14.068;2023-04-25T11:10:02;7.27;;;4.70;;
47796;SDS011;33558;50.922;14.068;2023-04-25T11:12:30;7.40;;;4.37;;
47796;SDS011;33558;50.922;14.068;2023-04-25T11:14:58;9.13;;;5.20;;
47796;SDS011;33558;50.922;14.068;2023-04-25T11:17:26;6.77;;;4.10;;
47796;SDS011;33558;50.922;14.068;2023-04-25T11:19:53;4.60;;;3.67;;
47796;SDS011;33558;50.922;14.068;2023-04-25T11:22:22;8.40;;;3.40;;
47796;SDS011;33558;50.922;14.068;2023-04-25T11:24:49;5.17;;;3.10;;
47796;SDS011;33558;50.922;14.068;2023-04-25T11:27:16;6.80;;;3.30;;
47796;SDS011;33558;50.922;14.068;2023-04-25T11:29:43;3.90;;;2.93;;
47796;SDS011;33558;50.922;14.068;2023-04-25T11:32:10;5.50;;;3.43;;
47796;SDS011;33558;50.922;14.068;2023-04-25T11:34:36;4.50;;;2.80;;
47796;SDS011;33558;50.922;14.068;2023-04-25T11:37:03;6.20;;;3.10;;
47796;SDS011;33558;50.922;14.068;2023-04-25T11:39:32;5.73;;;3.50;;
47796;SDS011;33558;50.922;14.068;2023-04-25T11:41:59;4.00;;;2.70;;
47796;SDS011;33558;50.922;14.068;2023-04-25T11:44:26;4.90;;;3.47;;
47796;SDS011;33558;50.922;14.068;2023-04-25T11:46:52;6.93;;;4.10;;
47796;SDS011;33558;50.922;14.068;2023-04-25T11:49:19;7.03;;;4.57;;
47796;SDS011;33558;50.922;14.068;2023-04-25T11:51:47;7.40;;;4.23;;
47796;SDS011;33558;50.922;14.068;2023-04-25T11:54:15;6.40;;;5.03;;
47796;SDS011;33558;50.922;14.068;2023-04-25T11:56:43;8.67;;;5.60;;
47796;SDS011;33558;50.922;14.068;2023-04-25T11:59:10;10.60;;;6.33;;
47796;SDS011;33558;50.922;14.068;2023-04-25T12:01:38;11.53;;;6.10;;
47796;SDS011;33558;50.922;14.068;2023-04-25T12:04:12;9.90;;;6.17;;
47796;SDS011;33558;50.922;14.068;2023-04-25T12:06:41;7.25;;;5.65;;
47796;SDS011;33558;50.922;14.068;2023-04-25T12:09:09;8.53;;;6.03;;
47796;SDS011;33558;50.922;14.068;2023-04-25T12:11:42;6.40;;;4.80;;
47796;SDS011;33558;50.922;14.068;2023-04-25T12:14:10;8.43;;;5.10;;
47796;SDS011;33558;50.922;14.068;2023-04-25T12:16:41;6.13;;;4.17;;
47796;SDS011;33558;50.922;14.068;2023-04-25T12:19:08;6.13;;;3.30;;
47796;SDS011;33558;50.922;14.068;2023-04-25T12:21:35;4.30;;;2.67;;
47796;SDS011;33558;50.922;14.068;2023-04-25T12:24:09;6.47;;;2.63;;
47796;SDS011;33558;50.922;14.068;2023-04-25T12:26:48;3.63;;;2.40;;
47796;SDS011;33558;50.922;14.068;2023-04-25T12:29:16;9.47;;;2.60;;
47796;SDS011;33558;50.922;14.068;2023-04-25T12:31:43;5.23;;;2.30;;
47796;SDS011;33558;50.922;14.068;2023-04-25T12:34:10;5.17;;;2.03;;
47796;SDS011;33558;50.922;14.068;2023-04-25T12:36:37;3.93;;;2.20;;
47796;SDS011;33558;50.922;14.068;2023-04-25T12:39:04;3.93;;;1.80;;
47796;SDS011;33558;50.922;14.068;2023-04-25T12:41:32;4.53;;;2.50;;
47796;SDS011;33558;50.922;14.068;2023-04-25T12:44:00;3.97;;;2.27;;
47796;SDS011;33558;50.922;14.068;2023-04-25T12:46:26;6.10;;;2.10;;
47796;SDS011;33558;50.922;14.068;2023-04-25T12:48:53;2.83;;;1.90;;
47796;SDS011;33558;50.922;14.068;2023-04-25T12:51:20;2.93;;;1.80;;
47796;SDS011;33558;50.922;14.068;2023-04-25T12:53:50;2.97;;;2.07;;
47796;SDS011;33558;50.922;14.068;2023-04-25T12:56:17;6.17;;;2.03;;
47796;SDS011;33558;50.922;14.068;2023-04-25T12:58:43;5.27;;;2.07;;
47796;SDS011;33558;50.922;14.068;2023-04-25T13:01:11;6.00;;;2.27;;
47796;SDS011;33558;50.922;14.068;2023-04-25T13:03:39;5.97;;;2.00;;
47796;SDS011;33558;50.922;14.068;2023-04-25T13:06:05;7.93;;;2.37;;
47796;SDS011;33558;50.922;14.068;2023-04-25T13:08:32;7.07;;;3.00;;
47796;SDS011;33558;50.922;14.068;2023-04-25T13:11:00;7.37;;;2.43;;
47796;SDS011;33558;50.922;14.068;2023-04-25T13:13:26;6.73;;;2.77;;
47796;SDS011;33558;50.922;14.068;2023-04-25T13:15:53;7.43;;;2.50;;
47796;SDS011;33558;50.922;14.068;2023-04-25T13:18:22;5.20;;;2.73;;
47796;SDS011;33558;50.922;14.068;2023-04-25T13:20:51;8.40;;;2.40;;
47796;SDS011;33558;50.922;14.068;2023-04-25T13:23:18;7.60;;;3.10;;
47796;SDS011;33558;50.922;14.068;2023-04-25T13:25:45;6.60;;;3.13;;
47796;SDS011;33558;50.922;14.068;2023-04-25T13:28:12;10.00;;;3.53;;
47796;SDS011;33558;50.922;14.068;2023-04-25T13:30:38;10.03;;;2.97;;
47796;SDS011;33558;50.922;14.068;2023-04-25T13:33:05;8.50;;;2.53;;
47796;SDS011;33558;50.922;14.068;2023-04-25T13:35:34;7.03;;;2.77;;
47796;SDS011;33558;50.922;14.068;2023-04-25T13:38:01;7.77;;;2.80;;
47796;SDS011;33558;50.922;14.068;2023-04-25T13:40:28;10.03;;;3.47;;
47796;SDS011;33558;50.922;14.068;2023-04-25T13:42:55;8.83;;;3.37;;
47796;SDS011;33558;50.922;14.068;2023-04-25T13:45:22;8.63;;;3.37;;
47796;SDS011;33558;50.922;14.068;2023-04-25T13:47:49;11.17;;;3.13;;
47796;SDS011;33558;50.922;14.068;2023-04-25T13:50:16;6.93;;;3.30;;
47796;SDS011;33558;50.922;14.068;2023-04-25T13:52:44;8.53;;;3.80;;
47796;SDS011;33558;50.922;14.068;2023-04-25T13:55:10;9.20;;;3.70;;
47796;SDS011;33558;50.922;14.068;2023-04-25T13:57:37;11.77;;;3.60;;
47796;SDS011;33558;50.922;14.068;2023-04-25T14:00:04;15.53;;;4.40;;
47796;SDS011;33558;50.922;14.068;2023-04-25T14:02:33;9.13;;;3.20;;
47796;SDS011;33558;50.922;14.068;2023-04-25T14:05:00;13.30;;;3.70;;
47796;SDS011;33558;50.922;14.068;2023-04-25T14:07:27;12.23;;;4.27;;
47796;SDS011;33558;50.922;14.068;2023-04-25T14:09:55;11.73;;;4.30;;
47796;SDS011;33558;50.922;14.068;2023-04-25T14:12:22;13.03;;;4.67;;
47796;SDS011;33558;50.922;14.068;2023-04-25T14:14:50;15.87;;;5.57;;
47796;SDS011;33558;50.922;14.068;2023-04-25T14:17:17;15.77;;;5.70;;
47796;SDS011;33558;50.922;14.068;2023-04-25T14:19:44;11.80;;;4.57;;
47796;SDS011;33558;50.922;14.068;2023-04-25T14:22:13;14.73;;;4.43;;
47796;SDS011;33558;50.922;14.068;2023-04-25T14:24:40;14.27;;;4.23;;
47796;SDS011;33558;50.922;14.068;2023-04-25T14:27:10;16.33;;;5.80;;
47796;SDS011;33558;50.922;14.068;2023-04-25T14:29:37;16.63;;;4.13;;
47796;SDS011;33558;50.922;14.068;2023-04-25T14:32:03;11.83;;;3.97;;
47796;SDS011;33558;50.922;14.068;2023-04-25T14:34:31;8.53;;;3.73;;
47796;SDS011;33558;50.922;14.068;2023-04-25T14:36:58;11.60;;;4.47;;
47796;SDS011;33558;50.922;14.068;2023-04-25T14:39:24;16.67;;;4.73;;
47796;SDS011;33558;50.922;14.068;2023-04-25T14:41:51;8.97;;;3.90;;
47796;SDS011;33558;50.922;14.068;2023-04-25T14:44:19;13.17;;;5.00;;
47796;SDS011;33558;50.922;14.068;2023-04-25T14:46:46;12.23;;;4.73;;
47796;SDS011;33558;50.922;14.068;2023-04-25T14:49:12;11.50;;;4.20;;
47796;SDS011;33558;50.922;14.068;2023-04-25T14:51:39;13.43;;;4.40;;
47796;SDS011;33558;50.922;14.068;2023-04-25T14:54:06;13.83;;;4.20;;